sensor_id;sensor_type;location;lat;lon;timestamp;temperature;humidity
24176;DHT22;12324;48.146;11.502;2024-02-14T00:01:07;2.50;99.90
24176;DHT22;12324;48.146;11.502;2024-02-14T00:03:36;2.50;99.90
24176;DHT22;12324;48.146;11.502;2024-02-14T00:06:05;2.50;99.90
24176;DHT22;12324;48.146;11.502;2024-02-14T00:08:32;2.50;99.90
24176;DHT22;12324;48.146;11.502;2024-02-14T00:10:59;2.50;99.90
24176;DHT22;12324;48.146;11.502;2024-02-14T00:13:27;2.40;99.90
24176;DHT22;12324;48.146;11.502;2024-02-14T00:15:53;2.40;99.90
24176;DHT22;12324;48.146;11.502;2024-02-14T00:18:20;2.50;99.90
24176;DHT22;12324;48.146;11.502;2024-02-14T00:20:49;2.50;99.90
24176;DHT22;12324;48.146;11.502;2024-02-14T00:23:16;2.50;99.90
24176;DHT22;12324;48.146;11.502;2024-02-14T00:25:43;2.60;99.90
24176;DHT22;12324;48.146;11.502;2024-02-14T00:28:10;2.60;99.90
24176;DHT22;12324;48.146;11.502;2024-02-14T00:30:36;2.70;99.90
24176;DHT22;12324;48.146;11.502;2024-02-14T00:33:03;2.70;99.90
24176;DHT22;12324;48.146;11.502;2024-02-14T00:35:30;2.80;99.90
24176;DHT22;12324;48.146;11.502;2024-02-14T00:37:57;2.80;99.90
24176;DHT22;12324;48.146;11.502;2024-02-14T00:40:24;2.80;99.90
24176;DHT22;12324;48.146;11.502;2024-02-14T00:42:51;2.80;99.90
24176;DHT22;12324;48.146;11.502;2024-02-14T00:45:18;2.80;99.90
24176;DHT22;12324;48.146;11.502;2024-02-14T00:47:45;2.80;99.90
24176;DHT22;12324;48.146;11.502;2024-02-14T00:50:12;2.80;99.90
24176;DHT22;12324;48.146;11.502;2024-02-14T00:52:40;2.80;99.90
24176;DHT22;12324;48.146;11.502;2024-02-14T00:55:07;2.90;99.90
24176;DHT22;12324;48.146;11.502;2024-02-14T00:57:34;2.90;99.90
24176;DHT22;12324;48.146;11.502;2024-02-14T01:00:01;2.90;99.90
24176;DHT22;12324;48.146;11.502;2024-02-14T01:02:28;2.90;99.90
24176;DHT22;12324;48.146;11.502;2024-02-14T01:04:55;2.90;99.90
24176;DHT22;12324;48.146;11.502;2024-02-14T01:07:21;3.00;99.90
24176;DHT22;12324;48.146;11.502;2024-02-14T01:09:48;3.00;99.90
24176;DHT22;12324;48.146;11.502;2024-02-14T01:12:16;3.00;99.90
24176;DHT22;12324;48.146;11.502;2024-02-14T01:14:43;3.10;99.90
24176;DHT22;12324;48.146;11.502;2024-02-14T01:17:10;3.10;99.90
24176;DHT22;12324;48.146;11.502;2024-02-14T01:19:37;3.10;99.90
24176;DHT22;12324;48.146;11.502;2024-02-14T01:22:04;3.10;99.90
24176;DHT22;12324;48.146;11.502;2024-02-14T01:24:31;3.10;99.90
24176;DHT22;12324;48.146;11.502;2024-02-14T01:26:58;3.20;99.90
24176;DHT22;12324;48.146;11.502;2024-02-14T01:29:25;3.20;99.90
24176;DHT22;12324;48.146;11.502;2024-02-14T01:31:53;3.20;99.90
24176;DHT22;12324;48.146;11.502;2024-02-14T01:34:20;3.20;99.90
24176;DHT22;12324;48.146;11.502;2024-02-14T01:36:48;3.20;99.90
24176;DHT22;12324;48.146;11.502;2024-02-14T01:39:14;3.20;99.90
24176;DHT22;12324;48.146;11.502;2024-02-14T01:41:45;3.20;99.90
24176;DHT22;12324;48.146;11.502;2024-02-14T01:44:16;3.30;99.90
24176;DHT22;12324;48.146;11.502;2024-02-14T01:46:44;3.30;99.90
24176;DHT22;12324;48.146;11.502;2024-02-14T01:49:11;3.30;99.90
24176;DHT22;12324;48.146;11.502;2024-02-14T01:51:43;3.30;99.90
24176;DHT22;12324;48.146;11.502;2024-02-14T01:54:12;3.40;99.90
24176;DHT22;12324;48.146;11.502;2024-02-14T01:56:39;3.40;99.90
24176;DHT22;12324;48.146;11.502;2024-02-14T01:59:07;3.40;99.90
24176;DHT22;12324;48.146;11.502;2024-02-14T02:01:35;3.50;99.90
24176;DHT22;12324;48.146;11.502;2024-02-14T02:04:02;3.50;99.90
24176;DHT22;12324;48.146;11.502;2024-02-14T02:06:30;3.50;99.90
24176;DHT22;12324;48.146;11.502;2024-02-14T02:08:57;3.50;99.90
24176;DHT22;12324;48.146;11.502;2024-02-14T02:11:25;3.50;99.90
24176;DHT22;12324;48.146;11.502;2024-02-14T02:13:52;3.50;99.90
24176;DHT22;12324;48.146;11.502;2024-02-14T02:16:19;3.50;99.90
24176;DHT22;12324;48.146;11.502;2024-02-14T02:18:47;3.50;99.90
24176;DHT22;12324;48.146;11.502;2024-02-14T02:21:15;3.50;99.90
24176;DHT22;12324;48.146;11.502;2024-02-14T02:23:42;3.50;99.90
24176;DHT22;12324;48.146;11.502;2024-02-14T02:26:11;3.50;99.90
24176;DHT22;12324;48.146;11.502;2024-02-14T02:28:38;3.50;99.90
24176;DHT22;12324;48.146;11.502;2024-02-14T02:31:06;3.50;99.90
24176;DHT22;12324;48.146;11.502;2024-02-14T02:33:33;3.50;99.90
24176;DHT22;12324;48.146;11.502;2024-02-14T02:36:00;3.50;99.90
24176;DHT22;12324;48.146;11.502;2024-02-14T02:38:27;3.50;99.90
24176;DHT22;12324;48.146;11.502;2024-02-14T02:40:54;3.50;99.90
24176;DHT22;12324;48.146;11.502;2024-02-14T02:43:21;3.50;99.90
24176;DHT22;12324;48.146;11.502;2024-02-14T02:45:48;3.50;99.90
24176;DHT22;12324;48.146;11.502;2024-02-14T02:48:15;3.40;99.90
24176;DHT22;12324;48.146;11.502;2024-02-14T02:50:42;3.50;99.90
24176;DHT22;12324;48.146;11.502;2024-02-14T02:53:11;3.40;99.90
24176;DHT22;12324;48.146;11.502;2024-02-14T02:55:38;3.50;99.90
24176;DHT22;12324;48.146;11.502;2024-02-14T02:58:05;3.50;99.90
24176;DHT22;12324;48.146;11.502;2024-02-14T03:00:33;3.50;99.90
24176;DHT22;12324;48.146;11.502;2024-02-14T03:03:00;3.60;99.90
24176;DHT22;12324;48.146;11.502;2024-02-14T03:05:29;3.50;99.90
24176;DHT22;12324;48.146;11.502;2024-02-14T03:07:58;3.50;99.90
24176;DHT22;12324;48.146;11.502;2024-02-14T03:10:25;3.60;99.90
24176;DHT22;12324;48.146;11.502;2024-02-14T03:12:52;3.50;99.90
24176;DHT22;12324;48.146;11.502;2024-02-14T03:15:19;3.50;99.90
24176;DHT22;12324;48.146;11.502;2024-02-14T03:17:46;3.50;99.90
24176;DHT22;12324;48.146;11.502;2024-02-14T03:20:13;3.60;99.90
24176;DHT22;12324;48.146;11.502;2024-02-14T03:22:44;3.60;99.90
24176;DHT22;12324;48.146;11.502;2024-02-14T03:25:19;3.60;99.90
24176;DHT22;12324;48.146;11.502;2024-02-14T03:27:46;3.60;99.90
24176;DHT22;12324;48.146;11.502;2024-02-14T03:30:20;3.60;99.90
24176;DHT22;12324;48.146;11.502;2024-02-14T03:32:47;3.50;99.90
24176;DHT22;12324;48.146;11.502;2024-02-14T03:35:14;3.50;99.90
24176;DHT22;12324;48.146;11.502;2024-02-14T03:37:42;3.50;99.90
24176;DHT22;12324;48.146;11.502;2024-02-14T03:40:10;3.50;99.90
24176;DHT22;12324;48.146;11.502;2024-02-14T03:42:38;3.40;99.90
24176;DHT22;12324;48.146;11.502;2024-02-14T03:45:07;3.40;99.90
24176;DHT22;12324;48.146;11.502;2024-02-14T03:47:35;3.30;99.90
24176;DHT22;12324;48.146;11.502;2024-02-14T03:50:06;3.30;99.90
24176;DHT22;12324;48.146;11.502;2024-02-14T03:52:33;3.30;99.90
24176;DHT22;12324;48.146;11.502;2024-02-14T03:55:01;3.20;99.90
24176;DHT22;12324;48.146;11.502;2024-02-14T03:57:28;3.10;99.90
24176;DHT22;12324;48.146;11.502;2024-02-14T03:59:55;3.10;99.90
24176;DHT22;12324;48.146;11.502;2024-02-14T04:02:22;3.00;99.90
24176;DHT22;12324;48.146;11.502;2024-02-14T04:04:55;3.00;99.90
24176;DHT22;12324;48.146;11.502;2024-02-14T04:07:22;2.90;99.90
24176;DHT22;12324;48.146;11.502;2024-02-14T04:09:48;2.90;99.90
24176;DHT22;12324;48.146;11.502;2024-02-14T04:12:15;2.90;99.90
24176;DHT22;12324;48.146;11.502;2024-02-14T04:14:42;2.80;99.90
24176;DHT22;12324;48.146;11.502;2024-02-14T04:17:09;2.80;99.90
24176;DHT22;12324;48.146;11.502;2024-02-14T04:19:37;2.80;99.90
24176;DHT22;12324;48.146;11.502;2024-02-14T04:22:04;2.70;99.90
24176;DHT22;12324;48.146;11.502;2024-02-14T04:24:35;2.70;99.90
24176;DHT22;12324;48.146;11.502;2024-02-14T04:27:02;2.70;99.90
24176;DHT22;12324;48.146;11.502;2024-02-14T04:29:31;2.80;99.90
24176;DHT22;12324;48.146;11.502;2024-02-14T04:32:00;2.90;99.90
24176;DHT22;12324;48.146;11.502;2024-02-14T04:34:27;2.90;99.90
24176;DHT22;12324;48.146;11.502;2024-02-14T04:36:54;2.90;99.90
24176;DHT22;12324;48.146;11.502;2024-02-14T04:39:21;2.90;99.90
24176;DHT22;12324;48.146;11.502;2024-02-14T04:41:48;2.90;99.90
24176;DHT22;12324;48.146;11.502;2024-02-14T04:44:36;2.90;99.90
24176;DHT22;12324;48.146;11.502;2024-02-14T04:47:03;2.90;99.90
24176;DHT22;12324;48.146;11.502;2024-02-14T04:49:30;3.00;99.90
24176;DHT22;12324;48.146;11.502;2024-02-14T04:51:58;3.00;99.90
24176;DHT22;12324;48.146;11.502;2024-02-14T04:54:25;3.10;99.90
24176;DHT22;12324;48.146;11.502;2024-02-14T04:56:52;3.10;99.90
24176;DHT22;12324;48.146;11.502;2024-02-14T04:59:24;3.10;99.90
24176;DHT22;12324;48.146;11.502;2024-02-14T05:01:51;3.10;99.90
24176;DHT22;12324;48.146;11.502;2024-02-14T05:04:20;3.10;99.90
24176;DHT22;12324;48.146;11.502;2024-02-14T05:06:47;3.10;99.90
24176;DHT22;12324;48.146;11.502;2024-02-14T05:09:15;3.10;99.90
24176;DHT22;12324;48.146;11.502;2024-02-14T05:11:42;3.20;99.90
24176;DHT22;12324;48.146;11.502;2024-02-14T05:14:09;3.20;99.90
24176;DHT22;12324;48.146;11.502;2024-02-14T05:16:36;3.10;99.90
24176;DHT22;12324;48.146;11.502;2024-02-14T05:19:03;3.20;99.90
24176;DHT22;12324;48.146;11.502;2024-02-14T05:21:30;3.10;99.90
24176;DHT22;12324;48.146;11.502;2024-02-14T05:23:57;3.10;99.90
24176;DHT22;12324;48.146;11.502;2024-02-14T05:26:24;3.10;99.90
24176;DHT22;12324;48.146;11.502;2024-02-14T05:28:50;3.10;99.90
24176;DHT22;12324;48.146;11.502;2024-02-14T05:31:17;3.20;99.90
24176;DHT22;12324;48.146;11.502;2024-02-14T05:33:44;3.20;99.90
24176;DHT22;12324;48.146;11.502;2024-02-14T05:36:11;3.20;99.90
24176;DHT22;12324;48.146;11.502;2024-02-14T05:38:38;3.20;99.90
24176;DHT22;12324;48.146;11.502;2024-02-14T05:41:05;3.30;99.90
24176;DHT22;12324;48.146;11.502;2024-02-14T05:43:34;3.20;99.90
24176;DHT22;12324;48.146;11.502;2024-02-14T05:46:01;3.30;99.90
24176;DHT22;12324;48.146;11.502;2024-02-14T05:48:28;3.30;99.90
24176;DHT22;12324;48.146;11.502;2024-02-14T05:50:55;3.30;99.90
24176;DHT22;12324;48.146;11.502;2024-02-14T05:53:22;3.30;99.90
24176;DHT22;12324;48.146;11.502;2024-02-14T05:55:48;3.40;99.90
24176;DHT22;12324;48.146;11.502;2024-02-14T05:58:15;3.40;99.90
24176;DHT22;12324;48.146;11.502;2024-02-14T06:00:42;3.50;99.90
24176;DHT22;12324;48.146;11.502;2024-02-14T06:03:09;3.50;99.90
24176;DHT22;12324;48.146;11.502;2024-02-14T06:05:36;3.60;99.90
24176;DHT22;12324;48.146;11.502;2024-02-14T06:08:03;3.60;99.90
24176;DHT22;12324;48.146;11.502;2024-02-14T06:10:30;3.70;99.90
24176;DHT22;12324;48.146;11.502;2024-02-14T06:12:57;3.70;99.90
24176;DHT22;12324;48.146;11.502;2024-02-14T06:15:24;3.60;99.90
24176;DHT22;12324;48.146;11.502;2024-02-14T06:17:50;3.70;99.90
24176;DHT22;12324;48.146;11.502;2024-02-14T06:20:18;3.70;99.90
24176;DHT22;12324;48.146;11.502;2024-02-14T06:22:45;3.80;99.90
24176;DHT22;12324;48.146;11.502;2024-02-14T06:25:22;3.80;99.90
24176;DHT22;12324;48.146;11.502;2024-02-14T06:27:49;3.80;99.90
24176;DHT22;12324;48.146;11.502;2024-02-14T06:30:16;3.90;99.90
24176;DHT22;12324;48.146;11.502;2024-02-14T06:32:44;3.90;99.90
24176;DHT22;12324;48.146;11.502;2024-02-14T06:40:22;4.00;99.90
24176;DHT22;12324;48.146;11.502;2024-02-14T06:57:33;4.60;99.90
24176;DHT22;12324;48.146;11.502;2024-02-14T07:00:00;5.10;99.90
24176;DHT22;12324;48.146;11.502;2024-02-14T07:02:28;5.10;99.90
24176;DHT22;12324;48.146;11.502;2024-02-14T07:04:55;5.20;99.90
24176;DHT22;12324;48.146;11.502;2024-02-14T07:07:22;5.20;99.90
24176;DHT22;12324;48.146;11.502;2024-02-14T07:09:48;5.30;99.90
24176;DHT22;12324;48.146;11.502;2024-02-14T07:12:15;5.30;99.90
24176;DHT22;12324;48.146;11.502;2024-02-14T07:14:42;5.20;99.90
24176;DHT22;12324;48.146;11.502;2024-02-14T07:17:09;5.30;99.90
24176;DHT22;12324;48.146;11.502;2024-02-14T07:19:36;5.30;99.90
24176;DHT22;12324;48.146;11.502;2024-02-14T07:22:05;5.30;99.90
24176;DHT22;12324;48.146;11.502;2024-02-14T07:24:31;5.40;99.90
24176;DHT22;12324;48.146;11.502;2024-02-14T07:26:58;5.30;99.90
24176;DHT22;12324;48.146;11.502;2024-02-14T07:29:25;5.30;99.90
24176;DHT22;12324;48.146;11.502;2024-02-14T07:31:52;5.40;99.90
24176;DHT22;12324;48.146;11.502;2024-02-14T07:34:19;5.40;99.90
24176;DHT22;12324;48.146;11.502;2024-02-14T07:36:46;5.40;99.90
24176;DHT22;12324;48.146;11.502;2024-02-14T07:39:13;5.50;99.90
24176;DHT22;12324;48.146;11.502;2024-02-14T07:41:40;5.60;99.90
24176;DHT22;12324;48.146;11.502;2024-02-14T07:51:29;5.60;99.90
24176;DHT22;12324;48.146;11.502;2024-02-14T07:53:56;5.80;99.90
24176;DHT22;12324;48.146;11.502;2024-02-14T07:56:23;5.80;99.90
24176;DHT22;12324;48.146;11.502;2024-02-14T07:58:50;5.80;99.90
24176;DHT22;12324;48.146;11.502;2024-02-14T08:01:17;5.90;99.90
24176;DHT22;12324;48.146;11.502;2024-02-14T08:28:21;6.00;99.90
24176;DHT22;12324;48.146;11.502;2024-02-14T08:30:48;6.50;99.90
24176;DHT22;12324;48.146;11.502;2024-02-14T08:33:15;6.50;99.90
24176;DHT22;12324;48.146;11.502;2024-02-14T08:35:42;6.60;99.90
24176;DHT22;12324;48.146;11.502;2024-02-14T08:38:09;6.60;99.90
24176;DHT22;12324;48.146;11.502;2024-02-14T11:04:40;12.60;96.60
24176;DHT22;12324;48.146;11.502;2024-02-14T11:07:10;12.60;92.60
24176;DHT22;12324;48.146;11.502;2024-02-14T11:09:37;12.40;92.80
24176;DHT22;12324;48.146;11.502;2024-02-14T11:12:10;12.60;93.60
24176;DHT22;12324;48.146;11.502;2024-02-14T11:14:37;12.60;92.80
24176;DHT22;12324;48.146;11.502;2024-02-14T11:17:10;12.70;92.30
24176;DHT22;12324;48.146;11.502;2024-02-14T11:19:37;12.80;92.90
24176;DHT22;12324;48.146;11.502;2024-02-14T11:22:18;13.00;92.50
24176;DHT22;12324;48.146;11.502;2024-02-14T11:24:46;13.00;93.00
24176;DHT22;12324;48.146;11.502;2024-02-14T11:27:17;13.00;93.20
24176;DHT22;12324;48.146;11.502;2024-02-14T11:30:00;13.10;93.50
24176;DHT22;12324;48.146;11.502;2024-02-14T11:32:27;13.10;94.30
24176;DHT22;12324;48.146;11.502;2024-02-14T11:34:55;13.00;94.20
24176;DHT22;12324;48.146;11.502;2024-02-14T11:37:29;13.00;94.00
24176;DHT22;12324;48.146;11.502;2024-02-14T11:39:57;12.90;94.50
24176;DHT22;12324;48.146;11.502;2024-02-14T11:42:25;13.00;95.00
24176;DHT22;12324;48.146;11.502;2024-02-14T11:44:53;13.10;95.20
24176;DHT22;12324;48.146;11.502;2024-02-14T11:47:22;13.00;93.80
24176;DHT22;12324;48.146;11.502;2024-02-14T11:49:49;13.10;94.90
24176;DHT22;12324;48.146;11.502;2024-02-14T11:52:17;13.00;93.60
24176;DHT22;12324;48.146;11.502;2024-02-14T11:54:48;13.10;93.80
24176;DHT22;12324;48.146;11.502;2024-02-14T11:57:18;13.10;94.60
24176;DHT22;12324;48.146;11.502;2024-02-14T11:59:49;13.20;94.50
24176;DHT22;12324;48.146;11.502;2024-02-14T12:02:17;13.20;94.40
24176;DHT22;12324;48.146;11.502;2024-02-14T12:32:17;13.30;94.00
24176;DHT22;12324;48.146;11.502;2024-02-14T12:34:44;13.30;91.60
24176;DHT22;12324;48.146;11.502;2024-02-14T12:37:11;13.30;90.90
24176;DHT22;12324;48.146;11.502;2024-02-14T12:49:30;13.50;91.20
24176;DHT22;12324;48.146;11.502;2024-02-14T12:51:59;13.40;89.30
24176;DHT22;12324;48.146;11.502;2024-02-14T12:54:26;13.30;92.80
24176;DHT22;12324;48.146;11.502;2024-02-14T12:56:53;13.10;98.60
24176;DHT22;12324;48.146;11.502;2024-02-14T12:59:20;12.80;99.60
24176;DHT22;12324;48.146;11.502;2024-02-14T13:01:47;12.70;99.90
24176;DHT22;12324;48.146;11.502;2024-02-14T13:04:14;12.60;99.90
24176;DHT22;12324;48.146;11.502;2024-02-14T13:06:43;12.60;99.90
24176;DHT22;12324;48.146;11.502;2024-02-14T13:09:10;12.70;99.90
24176;DHT22;12324;48.146;11.502;2024-02-14T13:11:40;12.80;99.90
24176;DHT22;12324;48.146;11.502;2024-02-14T13:14:10;12.90;99.90
24176;DHT22;12324;48.146;11.502;2024-02-14T13:16:37;13.10;99.90
24176;DHT22;12324;48.146;11.502;2024-02-14T13:19:05;13.20;99.90
24176;DHT22;12324;48.146;11.502;2024-02-14T13:21:32;13.00;99.90
24176;DHT22;12324;48.146;11.502;2024-02-14T13:24:00;13.00;99.90
24176;DHT22;12324;48.146;11.502;2024-02-14T13:26:27;13.10;99.90
24176;DHT22;12324;48.146;11.502;2024-02-14T13:28:54;13.10;99.90
24176;DHT22;12324;48.146;11.502;2024-02-14T13:31:22;13.10;99.90
24176;DHT22;12324;48.146;11.502;2024-02-14T13:33:48;13.10;99.90
24176;DHT22;12324;48.146;11.502;2024-02-14T13:36:15;13.00;99.90
24176;DHT22;12324;48.146;11.502;2024-02-14T13:38:43;12.90;99.90
24176;DHT22;12324;48.146;11.502;2024-02-14T13:41:11;13.00;99.90
24176;DHT22;12324;48.146;11.502;2024-02-14T13:43:40;13.10;99.90
24176;DHT22;12324;48.146;11.502;2024-02-14T13:46:07;13.40;99.90
24176;DHT22;12324;48.146;11.502;2024-02-14T13:48:36;13.30;99.90
24176;DHT22;12324;48.146;11.502;2024-02-14T13:53:30;13.50;99.90
24176;DHT22;12324;48.146;11.502;2024-02-14T13:55:57;14.20;99.90
24176;DHT22;12324;48.146;11.502;2024-02-14T13:58:24;14.90;99.90
24176;DHT22;12324;48.146;11.502;2024-02-14T14:00:51;15.50;99.70
24176;DHT22;12324;48.146;11.502;2024-02-14T14:03:17;14.70;98.90
24176;DHT22;12324;48.146;11.502;2024-02-14T14:05:44;15.40;97.40
24176;DHT22;12324;48.146;11.502;2024-02-14T14:08:11;15.70;95.80
24176;DHT22;12324;48.146;11.502;2024-02-14T14:10:38;16.10;93.30
24176;DHT22;12324;48.146;11.502;2024-02-14T14:13:05;15.20;94.20
24176;DHT22;12324;48.146;11.502;2024-02-14T14:15:32;16.20;92.70
24176;DHT22;12324;48.146;11.502;2024-02-14T14:17:59;16.90;92.10
24176;DHT22;12324;48.146;11.502;2024-02-14T14:20:26;16.90;89.90
24176;DHT22;12324;48.146;11.502;2024-02-14T14:22:54;17.20;88.60
24176;DHT22;12324;48.146;11.502;2024-02-14T14:25:20;16.90;89.50
24176;DHT22;12324;48.146;11.502;2024-02-14T14:27:47;16.30;90.40
24176;DHT22;12324;48.146;11.502;2024-02-14T14:30:14;15.80;91.70
24176;DHT22;12324;48.146;11.502;2024-02-14T14:32:41;15.40;93.30
24176;DHT22;12324;48.146;11.502;2024-02-14T14:35:08;15.00;95.30
24176;DHT22;12324;48.146;11.502;2024-02-14T14:37:37;15.10;95.70
24176;DHT22;12324;48.146;11.502;2024-02-14T14:40:04;15.30;95.20
24176;DHT22;12324;48.146;11.502;2024-02-14T14:42:32;15.10;96.60
24176;DHT22;12324;48.146;11.502;2024-02-14T14:44:59;15.50;94.90
24176;DHT22;12324;48.146;11.502;2024-02-14T14:47:26;15.10;96.10
24176;DHT22;12324;48.146;11.502;2024-02-14T14:49:53;15.00;96.50
24176;DHT22;12324;48.146;11.502;2024-02-14T14:52:20;15.20;96.80
24176;DHT22;12324;48.146;11.502;2024-02-14T14:54:47;15.80;95.10
24176;DHT22;12324;48.146;11.502;2024-02-14T14:57:14;15.00;96.10
24176;DHT22;12324;48.146;11.502;2024-02-14T14:59:42;14.40;99.20
24176;DHT22;12324;48.146;11.502;2024-02-14T15:02:10;14.90;98.40
24176;DHT22;12324;48.146;11.502;2024-02-14T15:04:37;14.50;99.90
24176;DHT22;12324;48.146;11.502;2024-02-14T15:07:06;14.30;99.90
24176;DHT22;12324;48.146;11.502;2024-02-14T15:09:33;14.00;99.90
24176;DHT22;12324;48.146;11.502;2024-02-14T15:12:04;13.60;99.90
24176;DHT22;12324;48.146;11.502;2024-02-14T15:14:31;13.60;99.90
24176;DHT22;12324;48.146;11.502;2024-02-14T15:16:58;13.40;99.90
24176;DHT22;12324;48.146;11.502;2024-02-14T15:19:25;13.20;99.90
24176;DHT22;12324;48.146;11.502;2024-02-14T15:21:53;13.10;99.90
24176;DHT22;12324;48.146;11.502;2024-02-14T15:24:20;13.00;99.90
24176;DHT22;12324;48.146;11.502;2024-02-14T15:26:47;12.90;99.90
24176;DHT22;12324;48.146;11.502;2024-02-14T15:29:19;12.90;99.90
24176;DHT22;12324;48.146;11.502;2024-02-14T15:32:05;12.80;99.90
24176;DHT22;12324;48.146;11.502;2024-02-14T15:34:51;12.80;99.90
24176;DHT22;12324;48.146;11.502;2024-02-14T15:37:18;12.70;99.90
24176;DHT22;12324;48.146;11.502;2024-02-14T15:39:45;12.60;99.90
24176;DHT22;12324;48.146;11.502;2024-02-14T15:42:12;12.60;99.90
24176;DHT22;12324;48.146;11.502;2024-02-14T15:44:39;12.50;99.90
24176;DHT22;12324;48.146;11.502;2024-02-14T15:47:06;12.40;99.90
24176;DHT22;12324;48.146;11.502;2024-02-14T15:49:34;12.30;99.90
24176;DHT22;12324;48.146;11.502;2024-02-14T15:52:02;12.40;99.90
24176;DHT22;12324;48.146;11.502;2024-02-14T15:54:30;12.30;99.90
24176;DHT22;12324;48.146;11.502;2024-02-14T15:56:57;12.30;99.90
24176;DHT22;12324;48.146;11.502;2024-02-14T15:59:24;12.20;99.90
24176;DHT22;12324;48.146;11.502;2024-02-14T16:01:51;12.10;99.90
24176;DHT22;12324;48.146;11.502;2024-02-14T16:04:18;12.10;99.90
24176;DHT22;12324;48.146;11.502;2024-02-14T16:06:45;12.10;99.90
24176;DHT22;12324;48.146;11.502;2024-02-14T16:09:12;12.00;99.90
24176;DHT22;12324;48.146;11.502;2024-02-14T16:11:39;12.00;99.90
24176;DHT22;12324;48.146;11.502;2024-02-14T16:14:06;12.00;99.90
24176;DHT22;12324;48.146;11.502;2024-02-14T16:16:32;12.00;99.90
24176;DHT22;12324;48.146;11.502;2024-02-14T16:18:59;11.90;99.90
24176;DHT22;12324;48.146;11.502;2024-02-14T16:21:26;11.90;99.90
24176;DHT22;12324;48.146;11.502;2024-02-14T16:23:53;11.90;99.90
24176;DHT22;12324;48.146;11.502;2024-02-14T16:26:20;11.90;99.90
24176;DHT22;12324;48.146;11.502;2024-02-14T16:28:47;11.80;99.90
24176;DHT22;12324;48.146;11.502;2024-02-14T16:31:14;11.80;99.90
24176;DHT22;12324;48.146;11.502;2024-02-14T16:33:41;11.80;99.90
24176;DHT22;12324;48.146;11.502;2024-02-14T16:36:09;11.80;99.90
24176;DHT22;12324;48.146;11.502;2024-02-14T16:38:36;11.70;99.90
24176;DHT22;12324;48.146;11.502;2024-02-14T16:41:03;11.70;99.90
24176;DHT22;12324;48.146;11.502;2024-02-14T16:43:30;11.70;99.90
24176;DHT22;12324;48.146;11.502;2024-02-14T16:45:56;11.60;99.90
24176;DHT22;12324;48.146;11.502;2024-02-14T16:48:24;11.60;99.90
24176;DHT22;12324;48.146;11.502;2024-02-14T16:50:52;11.60;99.90
24176;DHT22;12324;48.146;11.502;2024-02-14T16:53:19;11.60;99.90
24176;DHT22;12324;48.146;11.502;2024-02-14T16:55:46;11.60;99.90
24176;DHT22;12324;48.146;11.502;2024-02-14T16:58:13;11.50;99.90
24176;DHT22;12324;48.146;11.502;2024-02-14T17:00:39;11.50;99.90
24176;DHT22;12324;48.146;11.502;2024-02-14T17:03:06;11.40;99.90
24176;DHT22;12324;48.146;11.502;2024-02-14T17:05:42;11.40;99.90
24176;DHT22;12324;48.146;11.502;2024-02-14T17:08:11;11.40;99.90
24176;DHT22;12324;48.146;11.502;2024-02-14T17:10:38;11.30;99.90
24176;DHT22;12324;48.146;11.502;2024-02-14T17:13:05;11.30;99.90
24176;DHT22;12324;48.146;11.502;2024-02-14T17:15:32;11.30;99.90
24176;DHT22;12324;48.146;11.502;2024-02-14T17:17:59;11.30;99.90
24176;DHT22;12324;48.146;11.502;2024-02-14T17:20:25;11.20;99.90
24176;DHT22;12324;48.146;11.502;2024-02-14T17:22:52;11.20;99.90
24176;DHT22;12324;48.146;11.502;2024-02-14T17:25:20;11.20;99.90
24176;DHT22;12324;48.146;11.502;2024-02-14T17:27:47;11.10;99.90
24176;DHT22;12324;48.146;11.502;2024-02-14T17:30:14;11.00;99.90
24176;DHT22;12324;48.146;11.502;2024-02-14T17:32:41;11.00;99.90
24176;DHT22;12324;48.146;11.502;2024-02-14T17:35:15;11.00;99.90
24176;DHT22;12324;48.146;11.502;2024-02-14T17:37:42;11.00;99.90
24176;DHT22;12324;48.146;11.502;2024-02-14T17:40:09;11.00;99.90
24176;DHT22;12324;48.146;11.502;2024-02-14T17:42:36;10.90;99.90
24176;DHT22;12324;48.146;11.502;2024-02-14T17:45:04;10.90;99.90
24176;DHT22;12324;48.146;11.502;2024-02-14T17:47:32;10.90;99.90
24176;DHT22;12324;48.146;11.502;2024-02-14T17:50:01;10.90;99.90
24176;DHT22;12324;48.146;11.502;2024-02-14T17:52:29;10.90;99.90
24176;DHT22;12324;48.146;11.502;2024-02-14T17:54:56;10.80;99.90
24176;DHT22;12324;48.146;11.502;2024-02-14T17:57:24;10.80;99.90
24176;DHT22;12324;48.146;11.502;2024-02-14T17:59:51;10.80;99.90
24176;DHT22;12324;48.146;11.502;2024-02-14T18:02:19;10.70;99.90
24176;DHT22;12324;48.146;11.502;2024-02-14T18:04:46;10.70;99.90
24176;DHT22;12324;48.146;11.502;2024-02-14T18:07:13;10.70;99.90
24176;DHT22;12324;48.146;11.502;2024-02-14T18:09:41;10.70;99.90
24176;DHT22;12324;48.146;11.502;2024-02-14T18:12:08;10.70;99.90
24176;DHT22;12324;48.146;11.502;2024-02-14T18:14:35;10.70;99.90
24176;DHT22;12324;48.146;11.502;2024-02-14T18:17:02;10.60;99.90
24176;DHT22;12324;48.146;11.502;2024-02-14T18:19:28;10.60;99.90
24176;DHT22;12324;48.146;11.502;2024-02-14T18:21:56;10.60;99.90
24176;DHT22;12324;48.146;11.502;2024-02-14T18:24:23;10.60;99.90
24176;DHT22;12324;48.146;11.502;2024-02-14T18:26:49;10.70;99.90
24176;DHT22;12324;48.146;11.502;2024-02-14T18:29:16;10.70;99.90
24176;DHT22;12324;48.146;11.502;2024-02-14T18:31:43;10.60;99.90
24176;DHT22;12324;48.146;11.502;2024-02-14T18:34:10;10.60;99.90
24176;DHT22;12324;48.146;11.502;2024-02-14T18:36:37;10.60;99.90
24176;DHT22;12324;48.146;11.502;2024-02-14T18:39:04;10.60;99.90
24176;DHT22;12324;48.146;11.502;2024-02-14T18:41:31;10.60;99.90
24176;DHT22;12324;48.146;11.502;2024-02-14T18:43:57;10.50;99.90
24176;DHT22;12324;48.146;11.502;2024-02-14T18:46:30;10.50;99.90
24176;DHT22;12324;48.146;11.502;2024-02-14T18:48:56;10.40;99.90
24176;DHT22;12324;48.146;11.502;2024-02-14T18:51:24;10.40;99.90
24176;DHT22;12324;48.146;11.502;2024-02-14T18:53:51;10.50;99.90
24176;DHT22;12324;48.146;11.502;2024-02-14T18:56:20;10.60;99.90
24176;DHT22;12324;48.146;11.502;2024-02-14T18:58:47;10.50;99.90
24176;DHT22;12324;48.146;11.502;2024-02-14T19:01:23;10.40;99.90
24176;DHT22;12324;48.146;11.502;2024-02-14T19:03:54;10.50;99.90
24176;DHT22;12324;48.146;11.502;2024-02-14T19:06:22;10.50;99.90
24176;DHT22;12324;48.146;11.502;2024-02-14T19:08:49;10.40;99.90
24176;DHT22;12324;48.146;11.502;2024-02-14T19:11:18;10.40;99.90
24176;DHT22;12324;48.146;11.502;2024-02-14T19:13:44;10.40;99.90
24176;DHT22;12324;48.146;11.502;2024-02-14T19:16:12;10.40;99.90
24176;DHT22;12324;48.146;11.502;2024-02-14T19:18:53;10.40;99.90
24176;DHT22;12324;48.146;11.502;2024-02-14T19:21:20;10.40;99.90